Time;durP1;ratioP1;P1;durP2;ratioP2;P2;SDS_P1;SDS_P2;PMS_P1;PMS_P2;Temp;Humidity;BMP_temperature;BMP_pressure;BME280_temperature;BME280_humidity;BME280_pressure;Samples;Min_cycle;Max_cycle;Signal;HPM_P1;HPM_P2
2022/11/28 00:02:19;;;;;;;4.88;4.20;;;6.70;99.90;;;;;;5073321;28;20240;-60
2022/11/28 00:04:46;;;;;;;7.65;4.38;;;6.60;99.90;;;;;;5073490;28;20197;-62
2022/11/28 00:07:12;;;;;;;4.68;4.18;;;6.60;99.90;;;;;;5073311;28;20197;-61
2022/11/28 00:09:39;;;;;;;5.07;3.85;;;6.60;99.90;;;;;;5073455;28;20571;-60
2022/11/28 00:12:06;;;;;;;5.55;5.05;;;6.60;99.90;;;;;;5073258;28;20588;-61
2022/11/28 00:14:34;;;;;;;6.80;4.57;;;6.60;99.90;;;;;;5072931;28;20225;-61
2022/11/28 00:17:01;;;;;;;6.78;4.50;;;6.60;99.90;;;;;;5073156;28;20207;-60
2022/11/28 00:19:28;;;;;;;5.05;4.28;;;6.60;99.90;;;;;;5072822;28;20205;-61
2022/11/28 00:21:55;;;;;;;5.50;4.55;;;6.60;99.90;;;;;;5073120;28;20217;-61
2022/11/28 00:24:22;;;;;;;7.07;5.10;;;6.60;99.90;;;;;;5073067;28;20193;-61
2022/11/28 00:26:49;;;;;;;6.78;4.72;;;6.60;99.90;;;;;;5076058;28;20203;-62
2022/11/28 00:29:15;;;;;;;5.78;4.38;;;6.60;99.90;;;;;;5076961;28;20541;-60
2022/11/28 00:31:44;;;;;;;5.53;4.10;;;6.60;99.90;;;;;;5076632;28;20712;-61
2022/11/28 00:34:13;;;;;;;5.95;4.45;;;6.60;99.90;;;;;;5077087;28;20212;-60
2022/11/28 00:36:40;;;;;;;9.32;4.88;;;6.50;99.90;;;;;;5076832;28;20212;-60
2022/11/28 00:39:07;;;;;;;6.57;5.20;;;6.60;99.90;;;;;;5076664;28;20212;-61
2022/11/28 00:41:34;;;;;;;5.65;4.40;;;6.60;99.90;;;;;;5076950;28;20225;-59
2022/11/28 00:44:01;;;;;;;5.07;4.55;;;6.60;99.90;;;;;;5076640;28;20258;-59
2022/11/28 00:46:28;;;;;;;4.60;4.18;;;6.60;99.90;;;;;;5076736;28;20205;-60
2022/11/28 00:48:57;;;;;;;6.43;4.32;;;6.60;99.90;;;;;;5076425;28;20680;-60
2022/11/28 00:51:26;;;;;;;5.38;3.95;;;6.60;99.90;;;;;;5076549;28;20221;-59
2022/11/28 00:53:55;;;;;;;4.80;3.90;;;6.60;99.90;;;;;;5077138;28;20208;-60
2022/11/28 00:56:24;;;;;;;7.30;4.40;;;6.60;99.90;;;;;;5077390;28;20221;-59
2022/11/28 00:58:51;;;;;;;5.68;3.85;;;6.60;99.90;;;;;;5076947;28;20205;-60
2022/11/28 01:01:21;;;;;;;5.63;4.35;;;6.60;99.90;;;;;;5076197;28;20256;-60
2022/11/28 01:03:49;;;;;;;5.72;4.95;;;6.60;99.90;;;;;;5076168;28;20201;-60
2022/11/28 01:06:23;;;;;;;5.72;4.22;;;6.60;99.90;;;;;;5076033;28;20303;-61
2022/11/28 01:08:50;;;;;;;6.50;4.55;;;6.60;99.90;;;;;;5076227;28;20557;-61
2022/11/28 01:11:17;;;;;;;4.55;3.80;;;6.60;99.90;;;;;;5075664;28;20225;-61
2022/11/28 01:13:44;;;;;;;10.52;4.38;;;6.60;99.90;;;;;;5076380;28;20682;-59
2022/11/28 01:16:11;;;;;;;6.95;3.97;;;6.60;99.90;;;;;;5076149;28;20228;-59
2022/11/28 01:18:38;;;;;;;7.00;4.20;;;6.60;99.90;;;;;;5076313;28;20201;-59
2022/11/28 01:21:06;;;;;;;7.70;3.90;;;6.60;99.90;;;;;;5076177;28;20221;-60
2022/11/28 01:23:34;;;;;;;5.03;4.32;;;6.60;99.90;;;;;;5076461;28;20201;-60
2022/11/28 01:26:02;;;;;;;5.30;4.65;;;6.60;99.90;;;;;;5076521;28;20201;-61
2022/11/28 01:28:29;;;;;;;5.72;3.85;;;6.60;99.90;;;;;;5076371;28;20204;-60
2022/11/28 01:30:56;;;;;;;5.15;3.63;;;6.70;99.90;;;;;;5075944;28;20225;-60
2022/11/28 01:33:22;;;;;;;5.05;4.55;;;6.70;99.90;;;;;;5076043;28;20515;-61
2022/11/28 01:35:56;;;;;;;6.38;4.53;;;6.70;99.90;;;;;;5075837;28;20566;-61
2022/11/28 01:38:23;;;;;;;4.70;3.70;;;6.70;99.90;;;;;;5075236;28;20201;-60
2022/11/28 01:40:52;;;;;;;4.88;3.80;;;6.70;99.90;;;;;;5075977;28;20207;-61
2022/11/28 01:43:19;;;;;;;4.85;3.72;;;6.70;99.90;;;;;;5075827;28;20197;-60
2022/11/28 01:45:46;;;;;;;5.38;3.92;;;6.80;99.90;;;;;;5075293;28;20197;-60
2022/11/28 01:48:19;;;;;;;4.95;4.00;;;6.80;99.90;;;;;;5075837;28;20212;-61
2022/11/28 01:50:48;;;;;;;5.07;4.57;;;6.70;99.90;;;;;;5075734;28;20185;-61
2022/11/28 01:53:16;;;;;;;3.70;3.33;;;6.70;99.90;;;;;;5075887;28;20246;-61
2022/11/28 01:55:49;;;;;;;4.05;3.35;;;6.70;99.90;;;;;;5075566;28;20224;-60
2022/11/28 01:58:17;;;;;;;4.07;3.40;;;6.70;99.90;;;;;;5075357;28;20185;-60
2022/11/28 02:00:44;;;;;;;4.70;3.47;;;6.70;99.90;;;;;;5075298;28;20201;-60
2022/11/28 02:03:15;;;;;;;5.53;3.85;;;6.70;99.90;;;;;;5075550;28;20190;-60
2022/11/28 02:05:41;;;;;;;7.03;3.95;;;6.70;99.90;;;;;;5075356;28;20185;-59
2022/11/28 02:08:09;;;;;;;5.53;4.00;;;6.70;99.90;;;;;;5075307;28;20200;-60
2022/11/28 02:10:47;;;;;;;3.80;3.50;;;6.70;99.90;;;;;;5075057;28;20227;-60
2022/11/28 02:13:27;;;;;;;4.05;3.20;;;6.70;99.90;;;;;;5075683;28;20208;-60
2022/11/28 02:16:13;;;;;;;4.43;3.45;;;6.70;99.90;;;;;;5075195;28;20217;-59
2022/11/28 02:18:54;;;;;;;4.10;3.60;;;6.70;99.90;;;;;;5074683;28;20625;-62
2022/11/28 02:21:38;;;;;;;4.45;4.05;;;6.70;99.90;;;;;;5074903;28;20233;-59
2022/11/28 02:24:42;;;;;;;6.32;4.30;;;6.70;99.90;;;;;;5074810;28;20197;-60
2022/11/28 02:27:23;;;;;;;3.70;3.40;;;6.70;99.90;;;;;;5074885;28;20204;-60
2022/11/28 02:30:08;;;;;;;5.07;3.97;;;6.70;99.90;;;;;;5074856;28;20181;-60
2022/11/28 02:32:52;;;;;;;4.68;3.75;;;6.70;99.90;;;;;;5074672;28;20251;-59
2022/11/28 02:35:23;;;;;;;3.92;3.47;;;6.70;99.90;;;;;;5074755;28;20325;-60
2022/11/28 02:38:00;;;;;;;4.70;4.22;;;6.70;99.90;;;;;;5074375;28;20654;-60
2022/11/28 02:40:36;;;;;;;4.35;3.83;;;6.70;99.90;;;;;;5074528;28;20200;-60
2022/11/28 02:43:10;;;;;;;4.55;4.07;;;6.70;99.90;;;;;;5074311;28;20196;-61
2022/11/28 02:45:42;;;;;;;4.18;3.78;;;6.70;99.90;;;;;;5074397;28;20181;-61
2022/11/28 02:48:15;;;;;;;5.32;3.40;;;6.80;99.90;;;;;;5074343;28;20531;-60
2022/11/28 02:50:50;;;;;;;6.22;3.90;;;6.80;99.90;;;;;;5073461;28;20193;-61
2022/11/28 02:53:20;;;;;;;4.95;3.70;;;6.80;99.90;;;;;;5074234;28;20215;-60
2022/11/28 02:55:48;;;;;;;4.75;4.13;;;6.80;99.90;;;;;;5074040;28;20211;-59
2022/11/28 02:58:17;;;;;;;4.88;3.83;;;6.80;99.90;;;;;;5074231;28;20211;-60
2022/11/28 03:00:46;;;;;;;4.43;3.70;;;6.80;99.90;;;;;;5073670;28;20669;-60
2022/11/28 03:03:28;;;;;;;4.05;3.75;;;6.80;99.90;;;;;;5074146;28;20276;-60
2022/11/28 03:06:01;;;;;;;4.13;3.65;;;6.80;99.90;;;;;;5074071;28;20283;-59
2022/11/28 03:08:43;;;;;;;5.07;3.28;;;6.80;99.90;;;;;;5074014;28;20186;-60
2022/11/28 03:11:17;;;;;;;4.30;3.90;;;6.80;99.90;;;;;;5074018;28;20221;-60
2022/11/28 03:13:54;;;;;;;4.35;3.95;;;6.80;99.90;;;;;;5075263;28;20188;-62
2022/11/28 03:16:27;;;;;;;5.13;3.85;;;6.80;99.90;;;;;;5075182;28;20204;-59
2022/11/28 03:19:03;;;;;;;4.63;4.18;;;6.80;99.90;;;;;;5075702;28;20196;-61
2022/11/28 03:21:38;;;;;;;4.80;3.88;;;6.80;99.90;;;;;;5074614;28;20220;-60
2022/11/28 03:24:12;;;;;;;4.60;4.10;;;6.80;99.90;;;;;;5074451;28;20560;-60
2022/11/28 03:26:47;;;;;;;4.05;3.65;;;6.70;99.90;;;;;;5074587;28;20502;-59
2022/11/28 03:29:18;;;;;;;4.05;3.65;;;6.70;99.90;;;;;;5074504;28;20184;-60
2022/11/28 03:31:49;;;;;;;5.70;3.80;;;6.70;99.90;;;;;;5074524;28;20229;-60
2022/11/28 03:34:22;;;;;;;5.95;4.00;;;6.70;99.90;;;;;;5074393;28;20190;-60
2022/11/28 03:36:53;;;;;;;4.28;3.78;;;6.70;99.90;;;;;;5074036;28;20209;-60
2022/11/28 03:39:23;;;;;;;4.97;4.35;;;6.70;99.90;;;;;;5074094;28;20272;-60
2022/11/28 03:41:55;;;;;;;4.57;3.67;;;6.70;99.90;;;;;;5073738;28;20217;-60
2022/11/28 03:44:25;;;;;;;5.82;3.72;;;6.70;99.90;;;;;;5073651;28;20193;-60
2022/11/28 03:46:56;;;;;;;4.65;4.20;;;6.70;99.90;;;;;;5073764;28;20182;-61
2022/11/28 03:49:29;;;;;;;4.90;3.90;;;6.70;99.90;;;;;;5073788;28;20207;-61
2022/11/28 03:52:00;;;;;;;5.68;3.80;;;6.70;99.90;;;;;;5073922;28;20708;-60
2022/11/28 03:54:33;;;;;;;4.97;3.60;;;6.70;99.90;;;;;;5074277;28;20225;-60
2022/11/28 03:57:08;;;;;;;3.92;3.53;;;6.70;99.90;;;;;;5073491;28;20255;-58
2022/11/28 03:59:37;;;;;;;5.43;3.97;;;6.70;99.90;;;;;;5073720;28;20189;-61
2022/11/28 04:02:11;;;;;;;4.00;3.60;;;6.70;99.90;;;;;;5072760;28;20320;-60
2022/11/28 04:04:51;;;;;;;4.32;3.55;;;6.70;99.90;;;;;;5073483;28;20555;-59
2022/11/28 04:10:43;;;;;;;4.30;3.90;;;6.70;99.50;;;;;;5097496;28;20545;-61
2022/11/28 04:13:16;;;;;;;4.30;3.42;;;6.70;99.40;;;;;;5094534;28;20200;-63
2022/11/28 04:15:48;;;;;;;4.72;3.67;;;6.70;99.10;;;;;;5094570;28;20185;-61
2022/11/28 04:18:21;;;;;;;4.45;4.05;;;6.80;98.90;;;;;;5095414;28;20184;-60
2022/11/28 04:20:52;;;;;;;4.70;3.53;;;6.70;98.70;;;;;;5095731;28;20196;-59
2022/11/28 04:23:21;;;;;;;4.32;3.80;;;6.70;98.70;;;;;;5094491;28;20363;-61
2022/11/28 04:25:53;;;;;;;5.00;4.07;;;6.80;98.70;;;;;;5091685;28;20223;-62
2022/11/28 04:28:24;;;;;;;4.97;3.88;;;6.80;98.50;;;;;;5091149;28;20653;-61
2022/11/28 04:30:54;;;;;;;4.63;4.00;;;6.80;98.50;;;;;;5090869;28;20235;-61
2022/11/28 04:33:25;;;;;;;4.65;4.25;;;6.70;98.40;;;;;;5090609;28;20223;-61
2022/11/28 04:35:54;;;;;;;5.68;4.18;;;6.70;98.40;;;;;;5091144;28;20191;-61
2022/11/28 04:38:23;;;;;;;5.35;4.10;;;6.70;98.30;;;;;;5090801;28;20207;-61
2022/11/28 04:40:56;;;;;;;5.75;3.55;;;6.70;98.10;;;;;;5091323;28;20227;-62
2022/11/28 04:43:29;;;;;;;5.40;3.70;;;6.70;98.10;;;;;;5092397;28;20225;-60
2022/11/28 04:46:03;;;;;;;4.97;3.67;;;6.70;98.10;;;;;;5093715;28;20184;-61
2022/11/28 04:48:30;;;;;;;5.00;4.10;;;6.70;98.00;;;;;;5092627;28;20189;-60
2022/11/28 04:51:06;;;;;;;5.85;4.07;;;6.70;97.90;;;;;;5093111;28;20619;-60
2022/11/28 04:53:40;;;;;;;5.00;4.50;;;6.70;97.80;;;;;;5092657;28;20238;-61
2022/11/28 04:56:13;;;;;;;4.03;3.53;;;6.70;97.80;;;;;;5091110;28;20188;-61
2022/11/28 04:58:43;;;;;;;4.25;3.85;;;6.60;97.80;;;;;;5090537;28;20290;-61
2022/11/28 05:01:14;;;;;;;4.25;3.47;;;6.60;97.60;;;;;;5090748;28;20569;-61
2022/11/28 05:03:41;;;;;;;4.65;3.95;;;6.60;97.50;;;;;;5090844;28;20201;-61
2022/11/28 05:06:08;;;;;;;4.43;4.00;;;6.60;97.40;;;;;;5099031;22;20692;-59
2022/11/28 05:08:35;;;;;;;5.50;4.10;;;6.60;97.40;;;;;;5070111;28;20220;-59
2022/11/28 05:11:02;;;;;;;4.85;3.83;;;6.60;97.30;;;;;;5070301;28;20563;-59
2022/11/28 05:13:30;;;;;;;5.10;3.45;;;6.60;97.30;;;;;;5070779;28;20258;-59
2022/11/28 05:16:02;;;;;;;4.20;3.80;;;6.60;97.30;;;;;;5070759;28;20225;-59
2022/11/28 05:18:28;;;;;;;5.78;4.38;;;6.60;97.20;;;;;;5070583;28;20247;-59
2022/11/28 05:20:57;;;;;;;5.03;4.15;;;6.60;97.10;;;;;;5063074;28;20211;-59
2022/11/28 05:23:24;;;;;;;3.85;3.50;;;6.60;97.10;;;;;;5057250;28;20209;-59
2022/11/28 05:25:51;;;;;;;4.70;3.50;;;6.60;97.00;;;;;;5056612;28;20228;-59
2022/11/28 05:28:17;;;;;;;5.75;4.68;;;6.60;96.90;;;;;;5057061;28;20205;-58
2022/11/28 05:30:55;;;;;;;5.13;4.35;;;6.60;96.80;;;;;;5056828;28;20232;-59
2022/11/28 05:33:22;;;;;;;6.97;3.65;;;6.60;96.80;;;;;;5055858;28;20190;-59
2022/11/28 05:35:49;;;;;;;5.85;4.53;;;6.60;96.70;;;;;;5056637;28;20228;-59
2022/11/28 05:38:15;;;;;;;4.28;3.80;;;6.60;96.70;;;;;;5055935;28;20205;-59
2022/11/28 05:40:43;;;;;;;4.63;4.10;;;6.60;96.70;;;;;;5056027;28;20202;-58
2022/11/28 05:43:09;;;;;;;4.72;3.65;;;6.60;96.60;;;;;;5059094;28;20202;-59
2022/11/28 05:45:39;;;;;;;4.70;4.13;;;6.60;96.70;;;;;;5055887;28;20232;-59
2022/11/28 05:48:08;;;;;;;5.10;4.00;;;6.60;96.70;;;;;;5055952;28;20677;-59
2022/11/28 05:50:34;;;;;;;4.40;3.50;;;6.50;96.60;;;;;;5055298;28;20218;-59
2022/11/28 05:53:01;;;;;;;4.43;3.40;;;6.50;96.60;;;;;;5055731;28;20202;-59
2022/11/28 05:55:28;;;;;;;5.00;4.00;;;6.50;96.60;;;;;;5055611;28;20225;-59
2022/11/28 05:57:54;;;;;;;7.20;4.03;;;6.50;96.50;;;;;;5055102;28;20198;-59
2022/11/28 06:00:22;;;;;;;5.10;4.00;;;6.50;96.50;;;;;;5055273;28;20194;-59
2022/11/28 06:02:48;;;;;;;5.88;4.18;;;6.50;96.50;;;;;;5055032;28;20202;-57
2022/11/28 06:05:17;;;;;;;4.38;3.80;;;6.50;96.50;;;;;;5055189;28;20204;-60
2022/11/28 06:07:43;;;;;;;4.93;3.85;;;6.50;96.40;;;;;;5055222;28;20197;-59
2022/11/28 06:10:10;;;;;;;5.65;4.65;;;6.50;96.30;;;;;;5055025;28;20724;-59
2022/11/28 06:12:37;;;;;;;4.03;3.35;;;6.50;96.30;;;;;;5055529;28;20682;-59
2022/11/28 06:15:05;;;;;;;5.63;4.28;;;6.40;96.20;;;;;;5055364;28;20206;-59
2022/11/28 06:17:32;;;;;;;4.70;3.83;;;6.50;96.20;;;;;;5055416;28;20267;-59
2022/11/28 06:19:59;;;;;;;4.68;4.03;;;6.50;96.10;;;;;;5055380;28;20202;-59
2022/11/28 06:22:27;;;;;;;5.95;3.65;;;6.50;96.00;;;;;;5057490;28;20681;-59
2022/11/28 06:24:54;;;;;;;5.10;4.30;;;6.50;96.00;;;;;;5042504;28;20221;-59
2022/11/28 06:27:21;;;;;;;4.82;4.10;;;6.50;96.00;;;;;;5048124;28;20221;-58
2022/11/28 06:29:47;;;;;;;6.40;4.50;;;6.50;96.00;;;;;;5062195;28;20213;-61
2022/11/28 06:32:14;;;;;;;5.60;4.60;;;6.50;96.00;;;;;;5055815;28;20197;-59
2022/11/28 06:34:41;;;;;;;4.75;3.92;;;6.40;96.00;;;;;;5057260;28;20202;-59
2022/11/28 06:37:08;;;;;;;4.57;3.97;;;6.50;96.10;;;;;;5059987;28;20254;-57
2022/11/28 06:39:36;;;;;;;6.03;4.28;;;6.40;96.10;;;;;;5061698;28;20197;-59
2022/11/28 06:42:03;;;;;;;5.15;4.38;;;6.40;96.10;;;;;;5065614;28;20202;-59
2022/11/28 06:44:30;;;;;;;7.25;4.90;;;6.40;96.10;;;;;;5062175;28;20201;-59
2022/11/28 06:46:56;;;;;;;5.80;4.13;;;6.40;96.10;;;;;;5060162;28;20218;-58
2022/11/28 06:49:23;;;;;;;5.25;3.83;;;6.40;96.10;;;;;;5064116;28;20233;-58
2022/11/28 06:51:50;;;;;;;4.32;3.92;;;6.40;96.20;;;;;;5066370;28;20205;-59
2022/11/28 06:54:17;;;;;;;6.05;5.15;;;6.40;96.10;;;;;;5066830;28;20210;-59
2022/11/28 06:56:45;;;;;;;4.70;4.30;;;6.40;96.10;;;;;;5063967;28;20218;-59
2022/11/28 06:59:12;;;;;;;7.80;4.60;;;6.40;96.10;;;;;;5062652;28;20217;-58
2022/11/28 07:01:38;;;;;;;4.82;4.32;;;6.50;96.10;;;;;;5068483;28;20201;-58
2022/11/28 07:04:05;;;;;;;5.90;4.07;;;6.50;96.10;;;;;;5067295;28;20208;-59
2022/11/28 07:06:33;;;;;;;6.20;4.40;;;6.50;96.10;;;;;;5070601;28;20252;-59
2022/11/28 07:09:00;;;;;;;4.90;4.32;;;6.50;96.00;;;;;;5071046;28;20206;-59
2022/11/28 07:11:28;;;;;;;8.77;4.93;;;6.50;96.10;;;;;;5071290;28;20229;-58
2022/11/28 07:14:00;;;;;;;5.05;4.15;;;6.60;96.20;;;;;;5068246;28;20205;-58
2022/11/28 07:16:29;;;;;;;6.28;5.25;;;6.60;96.10;;;;;;5067996;28;20401;-58
2022/11/28 07:18:56;;;;;;;5.70;4.97;;;6.60;96.00;;;;;;5057004;28;20198;-59
2022/11/28 07:21:23;;;;;;;6.28;5.32;;;6.70;96.00;;;;;;5055357;28;20206;-58
2022/11/28 07:23:50;;;;;;;6.32;4.85;;;6.70;96.10;;;;;;5056545;28;20198;-59
2022/11/28 07:26:20;;;;;;;5.78;4.50;;;6.70;96.00;;;;;;5057391;28;20225;-59
2022/11/28 07:28:48;;;;;;;5.93;4.20;;;6.70;95.90;;;;;;5056657;28;20379;-59
2022/11/28 07:31:17;;;;;;;4.70;4.00;;;6.70;95.80;;;;;;5054722;28;20594;-59
2022/11/28 07:33:46;;;;;;;5.05;4.55;;;6.70;95.80;;;;;;5054153;28;20209;-59
2022/11/28 07:36:15;;;;;;;5.60;4.45;;;6.70;95.60;;;;;;5054709;28;20224;-60
2022/11/28 07:38:42;;;;;;;9.05;5.25;;;6.70;95.50;;;;;;5054463;28;20209;-59
2022/11/28 07:41:10;;;;;;;7.95;4.85;;;6.70;95.50;;;;;;5055158;28;20292;-58
2022/11/28 07:43:38;;;;;;;7.07;4.40;;;6.80;95.40;;;;;;5053274;28;20209;-59
2022/11/28 07:46:06;;;;;;;9.10;5.60;;;6.80;95.30;;;;;;5053741;28;20241;-59
2022/11/28 07:48:35;;;;;;;4.93;4.43;;;6.80;95.30;;;;;;5053335;28;20208;-59
2022/11/28 07:51:05;;;;;;;7.35;4.95;;;6.80;95.20;;;;;;5053683;28;20214;-59
2022/11/28 07:53:32;;;;;;;5.30;4.75;;;6.80;95.20;;;;;;5053406;28;20202;-58
2022/11/28 07:56:02;;;;;;;6.90;5.05;;;6.80;95.30;;;;;;5053615;28;20228;-59
2022/11/28 07:58:29;;;;;;;5.40;4.78;;;6.90;95.40;;;;;;5054556;28;20597;-58
2022/11/28 08:00:56;;;;;;;4.63;4.22;;;6.90;95.40;;;;;;5053597;28;20200;-58
2022/11/28 08:03:22;;;;;;;7.13;5.15;;;6.90;95.30;;;;;;5053368;28;20208;-59
2022/11/28 08:05:51;;;;;;;7.07;4.43;;;6.90;95.30;;;;;;5053327;28;20283;-58
2022/11/28 08:08:18;;;;;;;5.93;4.97;;;6.90;95.30;;;;;;5054002;28;20197;-59
2022/11/28 08:10:45;;;;;;;6.40;5.15;;;6.90;95.20;;;;;;5062645;28;20233;-58
2022/11/28 08:13:13;;;;;;;6.63;4.43;;;7.00;95.30;;;;;;5064056;28;20210;-58
2022/11/28 08:15:40;;;;;;;8.13;5.22;;;7.00;95.20;;;;;;5063967;28;20222;-58
2022/11/28 08:18:07;;;;;;;6.68;5.07;;;7.00;95.20;;;;;;5064752;28;20365;-59
2022/11/28 08:20:34;;;;;;;7.80;5.57;;;7.00;95.20;;;;;;5059825;28;20201;-59
2022/11/28 08:23:02;;;;;;;7.32;5.35;;;7.00;95.30;;;;;;5061654;28;20201;-59
2022/11/28 08:25:29;;;;;;;7.82;5.13;;;7.00;95.50;;;;;;5065814;28;20217;-57
2022/11/28 08:27:56;;;;;;;6.22;5.43;;;7.00;95.70;;;;;;5061550;28;20216;-59
2022/11/28 08:30:22;;;;;;;7.40;5.25;;;7.00;95.80;;;;;;5058870;28;20225;-59
2022/11/28 08:32:49;;;;;;;6.97;5.72;;;7.00;96.10;;;;;;5058562;28;20205;-58
2022/11/28 08:35:16;;;;;;;10.50;6.53;;;7.00;96.40;;;;;;5058379;28;20628;-60
2022/11/28 08:37:43;;;;;;;6.70;5.78;;;7.10;96.70;;;;;;5057898;28;20692;-58
2022/11/28 08:40:11;;;;;;;5.55;4.78;;;7.10;96.80;;;;;;5057089;28;20202;-58
2022/11/28 08:42:38;;;;;;;6.15;5.15;;;7.10;97.00;;;;;;5056533;28;20213;-58
2022/11/28 08:45:06;;;;;;;6.55;5.78;;;7.10;97.10;;;;;;5062904;28;20202;-59
2022/11/28 08:47:33;;;;;;;7.20;5.00;;;7.00;97.20;;;;;;5064884;28;20208;-58
2022/11/28 08:50:00;;;;;;;7.45;6.07;;;7.10;97.40;;;;;;5064277;28;20221;-58
2022/11/28 08:52:26;;;;;;;6.97;5.32;;;7.10;97.40;;;;;;5057106;28;20699;-59
2022/11/28 08:54:53;;;;;;;6.97;5.88;;;7.10;97.50;;;;;;5059447;28;20213;-58
2022/11/28 08:57:21;;;;;;;7.88;5.28;;;7.10;97.60;;;;;;5063312;28;20217;-58
2022/11/28 08:59:48;;;;;;;9.15;4.95;;;7.10;97.60;;;;;;5062615;28;20579;-59
2022/11/28 09:02:15;;;;;;;7.65;5.10;;;7.10;97.70;;;;;;5059176;28;20212;-59
2022/11/28 09:04:42;;;;;;;6.85;5.22;;;7.10;97.80;;;;;;5057480;28;20202;-59
2022/11/28 09:07:08;;;;;;;7.28;5.80;;;7.10;97.90;;;;;;5056508;28;20238;-58
2022/11/28 09:09:35;;;;;;;7.97;5.30;;;7.20;97.90;;;;;;5057370;28;20209;-58
2022/11/28 09:12:02;;;;;;;6.90;5.25;;;7.20;97.90;;;;;;5057543;28;20202;-59
2022/11/28 09:14:30;;;;;;;7.70;5.10;;;7.20;97.90;;;;;;5056429;28;20205;-59
2022/11/28 09:16:57;;;;;;;7.10;5.85;;;7.20;97.80;;;;;;5056382;28;20254;-57
2022/11/28 09:19:24;;;;;;;6.07;4.95;;;7.30;97.90;;;;;;5056216;28;20228;-59
2022/11/28 09:21:50;;;;;;;6.78;5.78;;;7.30;97.80;;;;;;5056170;28;20681;-58
2022/11/28 09:24:17;;;;;;;7.80;5.50;;;7.30;97.90;;;;;;5056299;28;20209;-58
2022/11/28 09:26:44;;;;;;;10.45;6.63;;;7.30;97.90;;;;;;5056477;28;20225;-59
2022/11/28 09:29:11;;;;;;;9.38;5.95;;;7.40;98.00;;;;;;5057592;28;20209;-59
2022/11/28 09:31:39;;;;;;;8.90;5.95;;;7.40;98.10;;;;;;5056270;28;20218;-59
2022/11/28 09:34:05;;;;;;;8.55;5.43;;;7.40;98.20;;;;;;5056838;28;20257;-59
2022/11/28 09:36:32;;;;;;;8.50;6.55;;;7.40;98.20;;;;;;5057658;28;20222;-57
2022/11/28 09:39:00;;;;;;;6.93;5.60;;;7.50;98.30;;;;;;5056908;28;20724;-58
2022/11/28 09:41:56;;;;;;;6.65;5.70;;;7.50;98.20;;;;;;5056464;28;20201;-59
2022/11/28 09:44:26;;;;;;;5.80;5.30;;;7.50;98.40;;;;;;5054517;28;20205;-58
2022/11/28 09:46:58;;;;;;;7.75;5.68;;;7.50;98.00;;;;;;5056472;28;20225;-59
2022/11/28 09:49:32;;;;;;;8.38;6.07;;;7.60;98.00;;;;;;5056256;28;20190;-58
2022/11/28 09:52:03;;;;;;;5.40;4.75;;;7.60;97.90;;;;;;5055585;28;20238;-59
2022/11/28 09:54:38;;;;;;;9.45;5.63;;;7.60;97.60;;;;;;5056276;28;20214;-58
2022/11/28 09:57:10;;;;;;;7.88;5.55;;;7.70;97.50;;;;;;5055842;28;20225;-59
2022/11/28 09:59:37;;;;;;;8.82;5.60;;;7.70;97.30;;;;;;5055835;28;20186;-59
2022/11/28 10:02:21;;;;;;;7.22;5.18;;;7.80;97.20;;;;;;5055259;28;20666;-59
2022/11/28 10:04:54;;;;;;;6.50;4.95;;;7.80;97.00;;;;;;5056203;28;20186;-58
2022/11/28 10:07:28;;;;;;;7.85;6.32;;;7.90;96.90;;;;;;5055209;28;20205;-58
2022/11/28 10:10:02;;;;;;;8.05;5.60;;;7.90;96.70;;;;;;5055895;28;20190;-59
2022/11/28 10:12:46;;;;;;;6.75;5.55;;;8.00;96.60;;;;;;5055877;28;20193;-58
2022/11/28 10:15:24;;;;;;;6.05;5.30;;;8.00;96.40;;;;;;5055686;28;20219;-58
2022/11/28 10:18:00;;;;;;;7.85;5.57;;;8.10;96.20;;;;;;5055791;28;20196;-59
2022/11/28 10:20:30;;;;;;;12.30;5.80;;;8.10;96.00;;;;;;5055209;28;20665;-58
2022/11/28 10:23:02;;;;;;;10.55;5.60;;;8.10;95.90;;;;;;5055288;28;20202;-58
2022/11/28 10:25:33;;;;;;;9.80;5.43;;;8.10;95.80;;;;;;5055685;28;20336;-59
2022/11/28 10:28:00;;;;;;;7.15;5.97;;;8.20;95.80;;;;;;5055682;28;20193;-59
2022/11/28 10:30:32;;;;;;;6.43;5.35;;;8.30;95.70;;;;;;5055255;28;20218;-58
2022/11/28 10:33:08;;;;;;;6.97;6.07;;;8.30;95.60;;;;;;5055813;28;20653;-59
2022/11/28 10:35:42;;;;;;;17.45;7.35;;;8.40;95.50;;;;;;5055171;28;20217;-58
2022/11/28 10:38:12;;;;;;;8.68;5.18;;;8.40;95.40;;;;;;5055826;28;20215;-59
2022/11/28 10:40:44;;;;;;;8.40;5.68;;;8.40;95.30;;;;;;5055186;28;20251;-58
2022/11/28 10:43:22;;;;;;;8.38;5.68;;;8.40;95.20;;;;;;5055371;28;20197;-59
2022/11/28 10:45:57;;;;;;;5.00;4.50;;;8.50;95.20;;;;;;5055491;28;20407;-58
2022/11/28 10:48:37;;;;;;;6.65;5.95;;;8.50;95.10;;;;;;5057089;28;20656;-59
2022/11/28 10:51:15;;;;;;;9.48;5.57;;;8.50;95.00;;;;;;5059002;28;20577;-57
2022/11/28 10:53:51;;;;;;;7.80;5.13;;;8.60;95.00;;;;;;5056888;28;20196;-59
2022/11/28 10:56:32;;;;;;;10.25;6.43;;;8.60;94.90;;;;;;5057586;28;20225;-58
2022/11/28 10:59:04;;;;;;;6.80;5.85;;;8.60;94.70;;;;;;5057195;28;20185;-59
2022/11/28 11:01:36;;;;;;;7.45;5.75;;;8.70;94.60;;;;;;5056695;28;20183;-59
2022/11/28 11:04:05;;;;;;;6.10;4.82;;;8.70;94.40;;;;;;5056100;28;20189;-58
2022/11/28 11:06:32;;;;;;;9.63;5.80;;;8.70;94.10;;;;;;5055490;28;20233;-59
2022/11/28 11:08:58;;;;;;;6.80;5.70;;;8.70;93.90;;;;;;5078580;22;20225;-60
2022/11/28 11:11:28;;;;;;;7.15;5.72;;;8.70;93.80;;;;;;5054030;28;20678;-60
2022/11/28 11:14:00;;;;;;;7.70;5.30;;;8.80;93.70;;;;;;5054500;28;20204;-61
2022/11/28 11:16:47;;;;;;;6.85;5.65;;;8.80;93.50;;;;;;5054024;28;20205;-60
2022/11/28 11:19:25;;;;;;;6.22;5.55;;;8.80;93.30;;;;;;5052701;28;20225;-57
2022/11/28 11:22:00;;;;;;;7.55;5.38;;;8.90;93.10;;;;;;5054314;28;20272;-60
2022/11/28 11:24:27;;;;;;;8.10;6.00;;;8.90;92.90;;;;;;5055429;28;20212;-59
2022/11/28 11:27:02;;;;;;;5.65;4.90;;;8.90;92.70;;;;;;5055358;28;20672;-60
2022/11/28 11:29:34;;;;;;;6.35;5.38;;;8.80;92.50;;;;;;5054650;28;20221;-59
2022/11/28 11:32:05;;;;;;;6.80;6.10;;;8.90;92.30;;;;;;5054071;28;20210;-59
2022/11/28 11:34:38;;;;;;;7.75;5.60;;;8.90;92.20;;;;;;5054185;28;20190;-58
2022/11/28 11:37:30;;;;;;;8.35;5.88;;;9.00;92.00;;;;;;5054193;28;20247;-60
2022/11/28 11:39:58;;;;;;;6.68;5.57;;;9.10;91.90;;;;;;5053967;28;20229;-59
2022/11/28 11:42:26;;;;;;;6.88;5.65;;;9.10;91.70;;;;;;5053137;28;20201;-60
2022/11/28 11:44:54;;;;;;;5.70;5.10;;;9.10;91.50;;;;;;5052975;28;20197;-59
2022/11/28 11:47:40;;;;;;;10.88;7.70;;;9.10;91.30;;;;;;5055581;28;20570;-58
2022/11/28 11:50:17;;;;;;;6.40;5.35;;;9.00;91.10;;;;;;5054460;28;20300;-58
2022/11/28 11:52:44;;;;;;;9.27;5.47;;;9.00;91.10;;;;;;5054605;28;20201;-57
2022/11/28 11:55:14;;;;;;;8.40;5.82;;;9.00;91.00;;;;;;5053943;28;20309;-59
2022/11/28 11:57:46;;;;;;;7.10;5.57;;;9.10;90.90;;;;;;5053693;28;20205;-58
2022/11/28 12:00:19;;;;;;;7.28;5.35;;;9.10;90.90;;;;;;5053925;28;20222;-58
2022/11/28 12:02:52;;;;;;;6.80;5.90;;;9.10;90.80;;;;;;5054289;28;20186;-57
2022/11/28 12:05:23;;;;;;;7.18;5.40;;;9.20;90.70;;;;;;5053281;28;20190;-59
2022/11/28 12:07:58;;;;;;;7.97;6.13;;;9.30;90.60;;;;;;5053119;28;20182;-58
2022/11/28 12:10:29;;;;;;;6.82;5.85;;;9.30;90.50;;;;;;5052434;28;20256;-59
2022/11/28 12:12:57;;;;;;;7.80;5.93;;;9.30;90.30;;;;;;5053517;28;20190;-60
2022/11/28 12:15:34;;;;;;;7.97;5.70;;;9.30;90.20;;;;;;5053211;28;20201;-58
2022/11/28 12:18:15;;;;;;;7.30;5.72;;;9.30;90.10;;;;;;5052865;28;20197;-57
2022/11/28 12:20:53;;;;;;;8.30;5.40;;;9.30;90.00;;;;;;5053221;28;20623;-57
2022/11/28 12:23:44;;;;;;;8.48;6.10;;;9.30;89.70;;;;;;5053290;28;20185;-57
2022/11/28 12:26:20;;;;;;;6.32;5.72;;;9.30;89.60;;;;;;5053040;28;20193;-57
2022/11/28 12:28:59;;;;;;;7.25;5.65;;;9.30;89.70;;;;;;5052800;28;20705;-57
2022/11/28 12:31:38;;;;;;;6.15;5.22;;;9.30;89.60;;;;;;5055539;28;20214;-57
2022/11/28 12:34:17;;;;;;;6.35;5.40;;;9.20;89.40;;;;;;5057958;28;20193;-58
2022/11/28 12:36:51;;;;;;;8.75;6.28;;;9.20;89.40;;;;;;5057223;28;20193;-58
2022/11/28 12:39:29;;;;;;;6.00;4.65;;;9.20;89.20;;;;;;5058462;28;20220;-60
2022/11/28 12:42:10;;;;;;;6.88;6.15;;;9.20;89.30;;;;;;5058427;28;20189;-58
2022/11/28 12:45:04;;;;;;;5.73;5.20;;;9.10;89.20;;;;;;5061798;28;20273;-58
2022/11/28 12:47:40;;;;;;;7.95;6.20;;;9.10;89.10;;;;;;5061900;28;20455;-58
2022/11/28 12:50:23;;;;;;;8.40;5.22;;;9.10;89.40;;;;;;5061819;28;20218;-59
2022/11/28 12:52:59;;;;;;;8.85;6.03;;;9.10;89.50;;;;;;5060882;28;20206;-57
2022/11/28 12:55:34;;;;;;;8.63;6.32;;;9.00;89.30;;;;;;5059890;28;20190;-58
2022/11/28 12:58:07;;;;;;;10.45;6.05;;;9.00;89.50;;;;;;5059562;28;20193;-59
2022/11/28 13:00:38;;;;;;;8.85;6.10;;;9.00;89.50;;;;;;5059716;28;20217;-60
2022/11/28 13:03:13;;;;;;;6.95;6.18;;;9.00;89.50;;;;;;5060302;28;20182;-59
2022/11/28 13:05:50;;;;;;;9.30;6.03;;;9.00;89.40;;;;;;5059784;28;20519;-59
2022/11/28 13:08:47;;;;;;;6.13;5.45;;;8.90;89.40;;;;;;5059822;28;20185;-58
2022/11/28 13:11:38;;;;;;;8.30;6.20;;;8.90;89.50;;;;;;5058161;28;20316;-60
2022/11/28 13:14:09;;;;;;;7.05;6.07;;;8.90;89.80;;;;;;5050165;28;20212;-59
2022/11/28 13:16:42;;;;;;;7.13;5.53;;;8.90;89.80;;;;;;5056500;28;20196;-61
2022/11/28 13:19:22;;;;;;;6.78;5.97;;;9.00;89.80;;;;;;5057061;28;20316;-60
2022/11/28 13:21:55;;;;;;;7.35;6.05;;;9.00;89.80;;;;;;5056579;28;20287;-60